Terminal Aerodrome Forecast
Issued by NWS Omaha/Valley, NE

Current Version | Previous Version | Text Only | Print | Product List | Glossary On
Versions: 1 2 3 4 5 6 7 8 9 10 11 12 13 14 15 16 17 18
000
FTUS43 KOAX 231720
TAFLNK
TAF
KLNK 231720Z 2318/2418 36005KT P6SM SCT014
     FM231900 34007KT P6SM BKN010
     FM240000 04005KT P6SM SCT025
     FM240500 03006KT P6SM BKN009
     FM240900 05007KT P6SM OVC008 PROB30 2410/2412 4SM -FZDZ OVC003=

USA.gov is the U.S. government's official web portal to all federal, state and local government web resources and services.